createdAt,value
2022-10-15T00:00:08.751Z,72.45
2022-10-15T00:02:35.437Z,72.48
2022-10-15T00:05:02.154Z,72.46
2022-10-15T00:07:29.060Z,72.45
2022-10-15T00:09:55.754Z,72.45
2022-10-15T00:12:22.456Z,72.23
2022-10-15T00:14:49.144Z,72.29
2022-10-15T00:17:15.920Z,72.17
2022-10-15T00:19:42.628Z,72.19
2022-10-15T00:22:09.363Z,72.26
2022-10-15T00:24:37.010Z,72.22
2022-10-15T00:27:03.939Z,72.26
2022-10-15T00:29:30.622Z,72.02
2022-10-15T00:31:57.334Z,72.03
2022-10-15T00:34:24.042Z,71.97
2022-10-15T00:36:50.974Z,71.79
2022-10-15T00:39:17.895Z,71.82
2022-10-15T00:41:45.042Z,71.73
2022-10-15T00:44:23.982Z,71.79
2022-10-15T00:47:10.713Z,71.58
2022-10-15T00:49:40.370Z,71.79
2022-10-15T00:52:11.255Z,71.80
2022-10-15T00:54:40.973Z,71.77
2022-10-15T00:57:08.392Z,71.80
2022-10-15T00:59:37.171Z,71.74
2022-10-15T01:02:03.909Z,71.76
2022-10-15T01:04:30.880Z,71.47
2022-10-15T01:06:57.565Z,71.50
2022-10-15T01:09:24.325Z,71.54
2022-10-15T01:11:52.250Z,71.09
2022-10-15T01:14:35.223Z,71.35
2022-10-15T01:17:11.682Z,71.22
2022-10-15T01:20:05.653Z,71.21
2022-10-15T01:22:46.407Z,71.33
2022-10-15T01:25:28.295Z,71.22
2022-10-15T01:27:57.035Z,70.93
2022-10-15T01:30:26.623Z,71.13
2022-10-15T01:33:09.269Z,71.04
2022-10-15T01:35:50.634Z,71.01
2022-10-15T01:38:54.812Z,70.95
2022-10-15T01:41:33.658Z,70.80
2022-10-15T01:44:08.712Z,70.70
2022-10-15T01:46:46.738Z,70.76
2022-10-15T01:49:14.980Z,70.80
2022-10-15T01:51:43.353Z,70.78
2022-10-15T01:54:12.691Z,70.88
2022-10-15T01:56:39.668Z,70.66
2022-10-15T01:59:07.077Z,70.57
2022-10-15T02:01:33.878Z,70.59
2022-10-15T02:04:00.697Z,70.52
2022-10-15T02:06:34.153Z,70.49
2022-10-15T02:09:16.465Z,70.34
2022-10-15T02:12:01.107Z,70.23
2022-10-15T02:14:50.840Z,70.28
2022-10-15T02:17:20.357Z,70.16
2022-10-15T02:22:31.345Z,70.04
2022-10-15T02:25:13.043Z,69.94
2022-10-15T02:27:40.268Z,69.84
2022-10-15T02:30:08.334Z,69.67
2022-10-15T02:32:37.418Z,69.80
2022-10-15T02:35:06.545Z,69.62
2022-10-15T02:37:34.869Z,69.56
2022-10-15T02:40:01.574Z,69.45
2022-10-15T02:42:28.285Z,69.24
2022-10-15T02:44:54.976Z,69.35
2022-10-15T02:47:22.107Z,69.35
2022-10-15T02:49:48.919Z,69.33
2022-10-15T02:52:15.621Z,69.42
2022-10-15T02:54:42.319Z,69.43
2022-10-15T02:57:09.049Z,69.45
2022-10-15T02:59:35.760Z,69.40
2022-10-15T03:02:02.468Z,69.31
2022-10-15T03:04:29.178Z,69.28
2022-10-15T03:06:55.913Z,69.12
2022-10-15T03:09:22.662Z,69.09
2022-10-15T03:11:49.349Z,69.20
2022-10-15T03:14:16.078Z,69.33
2022-10-15T03:16:42.812Z,69.12
2022-10-15T03:19:09.535Z,69.10
2022-10-15T03:21:36.253Z,69.19
2022-10-15T03:24:03.297Z,69.07
2022-10-15T03:26:29.988Z,68.93
2022-10-15T03:28:56.706Z,69.06
2022-10-15T03:31:23.424Z,69.12
2022-10-15T03:33:50.521Z,69.13
2022-10-15T03:36:17.287Z,68.67
2022-10-15T03:38:43.981Z,68.88
2022-10-15T03:41:10.736Z,68.85
2022-10-15T03:43:40.322Z,68.75
2022-10-15T03:46:09.469Z,68.86
2022-10-15T03:48:36.197Z,68.90
2022-10-15T03:51:02.887Z,68.90
2022-10-15T03:53:29.573Z,68.74
2022-10-15T03:55:56.357Z,68.81
2022-10-15T03:58:23.058Z,68.93
2022-10-15T04:00:49.789Z,68.94
2022-10-15T04:03:16.526Z,68.93
2022-10-15T04:05:53.764Z,68.86
2022-10-15T04:08:21.486Z,69.12
2022-10-15T04:10:48.201Z,69.10
2022-10-15T04:13:14.885Z,69.25
2022-10-15T04:15:41.640Z,69.31
2022-10-15T04:18:08.383Z,69.28
2022-10-15T04:20:35.280Z,69.32
2022-10-15T04:23:01.997Z,69.56
2022-10-15T04:25:28.724Z,69.28
2022-10-15T04:27:55.488Z,69.33
2022-10-15T04:30:22.174Z,69.32
2022-10-15T04:32:52.100Z,69.14
2022-10-15T04:35:18.798Z,69.24
2022-10-15T04:37:45.503Z,68.93
2022-10-15T04:40:12.805Z,68.75
2022-10-15T04:42:39.802Z,68.80
2022-10-15T04:45:09.066Z,68.93
2022-10-15T04:47:35.881Z,68.83
2022-10-15T04:50:02.685Z,68.62
2022-10-15T04:52:29.492Z,68.78
2022-10-15T04:54:56.178Z,68.61
2022-10-15T04:57:23.181Z,68.75
2022-10-15T04:59:53.919Z,68.94
2022-10-15T05:02:23.739Z,68.83
2022-10-15T05:04:50.867Z,68.77
2022-10-15T05:07:17.573Z,68.96
2022-10-15T05:09:46.449Z,68.83
2022-10-15T05:12:13.360Z,68.99
2022-10-15T05:14:40.084Z,69.13
2022-10-15T05:17:06.796Z,69.18
2022-10-15T05:19:33.507Z,68.95
2022-10-15T05:22:00.197Z,69.04
2022-10-15T05:24:29.094Z,69.13
2022-10-15T05:26:55.817Z,69.15
2022-10-15T05:29:22.502Z,69.11
2022-10-15T05:31:51.109Z,69.07
2022-10-15T05:34:17.795Z,69.11
2022-10-15T05:36:44.488Z,69.23
2022-10-15T05:39:12.151Z,69.04
2022-10-15T05:41:38.910Z,68.82
2022-10-15T05:44:05.792Z,68.93
2022-10-15T05:46:32.516Z,68.75
2022-10-15T05:48:59.353Z,68.86
2022-10-15T05:51:27.233Z,68.75
2022-10-15T05:53:55.589Z,68.49
2022-10-15T05:56:22.353Z,68.27
2022-10-15T05:58:49.343Z,68.78
2022-10-15T06:01:16.108Z,68.84
2022-10-15T06:03:43.044Z,68.85
2022-10-15T06:06:16.722Z,68.80
2022-10-15T06:08:43.493Z,69.09
2022-10-15T06:11:10.254Z,69.04
2022-10-15T06:13:41.541Z,68.93
2022-10-15T06:16:08.652Z,68.97
2022-10-15T06:18:36.133Z,69.02
2022-10-15T06:21:02.814Z,69.07
2022-10-15T06:23:29.509Z,68.78
2022-10-15T06:25:56.265Z,68.90
2022-10-15T06:28:23.115Z,68.58
2022-10-15T06:30:49.881Z,68.72
2022-10-15T06:33:17.047Z,69.18
2022-10-15T06:35:43.972Z,69.06
2022-10-15T06:38:11.308Z,69.25
2022-10-15T06:40:39.068Z,69.67
2022-10-15T06:43:08.124Z,69.47
2022-10-15T06:45:40.242Z,69.55
2022-10-15T06:48:07.634Z,69.43
2022-10-15T06:50:36.054Z,69.62
2022-10-15T06:53:02.895Z,69.59
2022-10-15T06:55:29.646Z,69.68
2022-10-15T06:57:57.057Z,69.61
2022-10-15T07:00:24.800Z,69.70
2022-10-15T07:02:51.744Z,69.77
2022-10-15T07:05:19.042Z,69.89
2022-10-15T07:07:55.643Z,69.87
2022-10-15T07:10:23.076Z,70.15
2022-10-15T07:12:49.859Z,70.19
2022-10-15T07:15:17.145Z,70.58
2022-10-15T07:17:49.201Z,70.18
2022-10-15T07:20:20.147Z,69.93
2022-10-15T07:22:50.100Z,70.44
2022-10-15T07:25:16.970Z,70.30
2022-10-15T07:27:43.671Z,70.35
2022-10-15T07:30:10.636Z,70.43
2022-10-15T07:32:37.380Z,70.67
2022-10-15T07:35:05.045Z,70.85
2022-10-15T07:37:31.828Z,70.64
2022-10-15T07:39:58.620Z,70.78
2022-10-15T07:42:25.314Z,71.04
2022-10-15T07:44:52.020Z,70.96
2022-10-15T07:47:18.818Z,71.14
2022-10-15T07:49:45.537Z,71.08
2022-10-15T07:52:12.385Z,71.27
2022-10-15T07:54:39.159Z,71.33
2022-10-15T07:57:07.072Z,71.33
2022-10-15T07:59:34.479Z,71.32
2022-10-15T08:02:01.367Z,71.43
2022-10-15T08:04:28.097Z,71.53
2022-10-15T08:06:55.217Z,71.74
2022-10-15T08:09:22.199Z,71.59
2022-10-15T08:11:48.915Z,71.60
2022-10-15T08:14:15.661Z,71.74
2022-10-15T08:16:42.440Z,71.57
2022-10-15T08:19:09.149Z,71.80
2022-10-15T08:21:35.861Z,71.80
2022-10-15T08:24:02.596Z,71.76
2022-10-15T08:26:29.322Z,71.98
2022-10-15T08:28:56.090Z,72.02
2022-10-15T08:31:22.838Z,72.19
2022-10-15T08:33:50.301Z,72.22
2022-10-15T08:36:17.192Z,72.61
2022-10-15T08:38:43.887Z,72.59
2022-10-15T08:41:30.520Z,72.55
2022-10-15T08:43:57.332Z,72.46
2022-10-15T08:46:30.469Z,72.54
2022-10-15T08:48:59.194Z,72.39
2022-10-15T08:51:30.679Z,72.59
2022-10-15T08:53:59.980Z,72.68
2022-10-15T08:56:40.752Z,72.29
2022-10-15T08:59:31.692Z,72.20
2022-10-15T09:02:03.580Z,72.20
2022-10-15T09:04:36.213Z,72.02
2022-10-15T09:07:10.506Z,71.90
2022-10-15T09:09:43.113Z,71.81
2022-10-15T09:12:44.797Z,71.63
2022-10-15T09:15:15.429Z,72.21
2022-10-15T09:17:43.372Z,71.98
2022-10-15T09:20:29.957Z,72.06
2022-10-15T09:22:56.837Z,72.10
2022-10-15T09:25:26.442Z,71.91
2022-10-15T09:27:56.434Z,71.80
2022-10-15T09:30:51.684Z,71.76
2022-10-15T09:33:34.372Z,71.69
2022-10-15T09:36:25.965Z,71.52
2022-10-15T09:39:11.532Z,71.27
2022-10-15T09:41:51.694Z,71.38
2022-10-15T09:44:21.275Z,71.79
2022-10-15T09:46:51.287Z,71.50
2022-10-15T09:49:22.272Z,71.49
2022-10-15T09:52:01.654Z,71.26
2022-10-15T09:55:09.861Z,71.36
2022-10-15T09:57:37.716Z,71.33
2022-10-15T10:00:09.740Z,71.41
2022-10-15T10:02:36.499Z,70.96
2022-10-15T10:05:51.420Z,71.16
2022-10-15T10:08:54.758Z,71.17
2022-10-15T10:11:23.065Z,71.30
2022-10-15T10:14:01.094Z,71.36
2022-10-15T10:16:37.132Z,71.43
2022-10-15T10:19:12.781Z,71.39
2022-10-15T10:22:08.640Z,71.18
2022-10-15T10:24:38.506Z,71.41
2022-10-15T10:27:17.683Z,71.31
2022-10-15T10:29:49.378Z,71.25
2022-10-15T10:32:21.741Z,71.31
2022-10-15T10:34:52.426Z,71.11
2022-10-15T10:37:20.137Z,71.12
2022-10-15T10:39:52.908Z,71.11
2022-10-15T10:42:19.977Z,71.22
2022-10-15T10:44:46.957Z,70.72
2022-10-15T10:47:16.619Z,70.96
2022-10-15T10:49:53.508Z,70.57
2022-10-15T10:52:34.092Z,70.66
2022-10-15T10:55:31.626Z,70.30
2022-10-15T10:58:02.144Z,70.30
2022-10-15T11:00:43.381Z,70.01
2022-10-15T11:03:25.560Z,70.11
2022-10-15T11:06:00.452Z,70.08
2022-10-15T11:08:59.515Z,69.81
2022-10-15T11:11:38.057Z,69.89
2022-10-15T11:14:35.852Z,70.25
2022-10-15T11:17:07.218Z,70.28
2022-10-15T11:23:17.170Z,70.56
2022-10-15T11:25:55.872Z,70.37
2022-10-15T11:28:30.288Z,70.44
2022-10-15T11:31:11.110Z,70.71
2022-10-15T11:33:50.019Z,70.38
2022-10-15T11:36:19.551Z,70.63
2022-10-15T11:38:54.014Z,70.72
2022-10-15T11:41:41.273Z,70.73
2022-10-15T11:44:31.676Z,70.98
2022-10-15T11:47:17.490Z,70.99
2022-10-15T11:49:54.842Z,70.64
2022-10-15T11:52:39.204Z,70.98
2022-10-15T11:55:15.213Z,71.07
2022-10-15T11:57:42.556Z,71.09
2022-10-15T12:00:24.363Z,70.41
2022-10-15T12:02:51.466Z,70.62
2022-10-15T12:05:32.007Z,70.35
2022-10-15T12:07:59.380Z,70.09
2022-10-15T12:10:44.639Z,70.10
2022-10-15T12:13:17.214Z,70.00
2022-10-15T12:15:59.045Z,69.74
2022-10-15T12:18:43.820Z,70.04
2022-10-15T12:21:39.904Z,70.21
2022-10-15T12:24:38.405Z,69.98
2022-10-15T12:27:20.373Z,69.60
2022-10-15T12:29:52.602Z,69.80
2022-10-15T12:32:36.685Z,69.68
2022-10-15T12:35:25.782Z,69.59
2022-10-15T12:37:52.520Z,69.88
2022-10-15T12:40:22.187Z,69.91
2022-10-15T12:43:13.062Z,69.81
2022-10-15T12:45:41.923Z,70.18
2022-10-15T12:48:08.526Z,70.26
2022-10-15T12:50:37.271Z,70.06
2022-10-15T12:53:06.358Z,70.16
2022-10-15T12:55:38.773Z,70.28
2022-10-15T12:58:05.771Z,70.37
2022-10-15T13:00:35.858Z,70.32
2022-10-15T13:03:25.539Z,70.47
2022-10-15T13:05:54.433Z,70.50
2022-10-15T13:08:23.426Z,70.53
2022-10-15T13:10:53.782Z,70.62
2022-10-15T13:13:29.921Z,70.34
2022-10-15T13:15:59.408Z,70.20
2022-10-15T13:18:27.018Z,70.50
2022-10-15T13:20:56.244Z,70.59
2022-10-15T13:23:32.800Z,70.49
2022-10-15T13:26:19.965Z,70.40
2022-10-15T13:28:49.199Z,70.44
2022-10-15T13:31:27.393Z,70.63
2022-10-15T13:34:08.763Z,70.66
2022-10-15T13:36:35.828Z,70.71
2022-10-15T13:39:08.390Z,70.55
2022-10-15T13:41:37.339Z,70.65
2022-10-15T13:44:04.646Z,70.65
2022-10-15T13:46:34.299Z,70.51
2022-10-15T13:49:03.722Z,70.31
2022-10-15T13:51:37.485Z,70.10
2022-10-15T13:54:08.952Z,70.46
2022-10-15T13:56:35.658Z,70.64
2022-10-15T13:59:03.792Z,70.45
2022-10-15T14:01:33.085Z,70.68
2022-10-15T14:04:01.642Z,70.35
2022-10-15T14:06:32.946Z,70.60
2022-10-15T14:09:01.755Z,70.40
2022-10-15T14:11:29.397Z,70.25
2022-10-15T14:13:57.913Z,70.56
2022-10-15T14:16:28.296Z,70.46
2022-10-15T14:19:10.762Z,70.78
2022-10-15T14:21:43.310Z,70.46
2022-10-15T14:24:16.822Z,70.36
2022-10-15T14:26:44.202Z,70.36
2022-10-15T14:29:27.959Z,70.55
2022-10-15T14:31:54.981Z,70.76
2022-10-15T14:34:30.875Z,70.84
2022-10-15T14:36:57.587Z,70.65
2022-10-15T14:39:34.225Z,70.92
2022-10-15T14:42:03.480Z,70.95
2022-10-15T14:44:45.187Z,70.72
2022-10-15T14:47:32.648Z,70.92
2022-10-15T14:50:00.734Z,70.85
2022-10-15T14:52:30.345Z,70.88
2022-10-15T14:55:03.114Z,70.87
2022-10-15T14:57:34.570Z,70.69
2022-10-15T15:00:01.711Z,70.63
2022-10-15T15:02:29.025Z,71.11
2022-10-15T15:05:10.938Z,71.02
2022-10-15T15:07:38.312Z,70.74
2022-10-15T15:10:07.581Z,71.16
2022-10-15T15:12:35.102Z,70.81
2022-10-15T15:15:02.157Z,70.97
2022-10-15T15:17:30.270Z,70.76
2022-10-15T15:19:57.983Z,70.89
2022-10-15T15:22:30.403Z,71.05
2022-10-15T15:24:58.467Z,70.83
2022-10-15T15:27:28.174Z,71.22
2022-10-15T15:29:55.496Z,71.49
2022-10-15T15:32:23.470Z,71.42
2022-10-15T15:34:51.655Z,71.08
2022-10-15T15:37:20.698Z,71.38
2022-10-15T15:39:47.747Z,71.33
2022-10-15T15:42:22.435Z,71.23
2022-10-15T15:44:49.798Z,71.43
2022-10-15T15:47:16.703Z,71.31
2022-10-15T15:49:43.463Z,71.57
2022-10-15T15:52:14.038Z,71.63
2022-10-15T15:54:41.201Z,71.54
2022-10-15T15:57:07.967Z,71.79
2022-10-15T15:59:35.016Z,71.79
2022-10-15T16:02:01.861Z,71.43
2022-10-15T16:04:28.699Z,71.77
2022-10-15T16:06:55.781Z,71.94
2022-10-15T16:09:23.470Z,71.66
2022-10-15T16:11:50.974Z,71.56
2022-10-15T16:14:17.784Z,71.72
2022-10-15T16:16:44.523Z,71.96
2022-10-15T16:19:11.553Z,71.81
2022-10-15T16:21:38.324Z,71.71
2022-10-15T16:24:05.369Z,71.91
2022-10-15T16:26:32.982Z,71.88
2022-10-15T16:28:59.792Z,71.89
2022-10-15T16:31:32.304Z,72.15
2022-10-15T16:33:59.261Z,72.03
2022-10-15T16:36:25.980Z,72.22
2022-10-15T16:38:52.868Z,72.13
2022-10-15T16:41:20.599Z,72.15
2022-10-15T16:43:47.692Z,72.23
2022-10-15T16:46:16.322Z,72.24
2022-10-15T16:48:43.659Z,72.24
2022-10-15T16:51:13.051Z,72.22
2022-10-15T16:53:41.132Z,72.33
2022-10-15T16:56:13.918Z,72.67
2022-10-15T16:58:40.730Z,72.61
2022-10-15T17:01:11.348Z,72.73
2022-10-15T17:03:38.907Z,72.51
2022-10-15T17:06:08.108Z,72.95
2022-10-15T17:08:48.044Z,72.70
2022-10-15T17:11:29.014Z,72.62
2022-10-15T17:13:58.368Z,72.81
2022-10-15T17:16:33.677Z,72.78
2022-10-15T17:19:00.696Z,73.17
2022-10-15T17:21:29.487Z,73.06
2022-10-15T17:23:58.480Z,73.21
2022-10-15T17:26:33.335Z,73.30
2022-10-15T17:29:00.299Z,73.46
2022-10-15T17:31:27.461Z,73.13
2022-10-15T17:33:56.511Z,73.46
2022-10-15T17:36:23.454Z,73.41
2022-10-15T17:38:50.192Z,73.22
2022-10-15T17:41:19.207Z,73.12
2022-10-15T17:43:45.933Z,73.13
2022-10-15T17:46:15.399Z,73.11
2022-10-15T17:48:43.159Z,73.14
2022-10-15T17:51:13.289Z,73.03
2022-10-15T17:53:40.770Z,73.12
2022-10-15T17:56:16.230Z,73.18
2022-10-15T17:58:43.519Z,73.22
2022-10-15T18:01:33.800Z,73.16
2022-10-15T18:04:06.795Z,73.58
2022-10-15T18:06:33.573Z,73.38
2022-10-15T18:09:00.417Z,73.77
2022-10-15T18:11:30.539Z,73.73
2022-10-15T18:13:57.330Z,73.81
2022-10-15T18:16:24.276Z,73.83
2022-10-15T18:18:52.894Z,73.72
2022-10-15T18:21:20.572Z,73.79
2022-10-15T18:23:47.773Z,73.99
2022-10-15T18:26:20.024Z,73.88
2022-10-15T18:28:47.673Z,73.76
2022-10-15T18:31:15.427Z,73.80
2022-10-15T18:33:47.795Z,73.70
2022-10-15T18:36:20.107Z,73.68
2022-10-15T18:38:46.865Z,73.81
2022-10-15T18:41:23.614Z,73.59
2022-10-15T18:44:05.071Z,73.69
2022-10-15T18:46:33.828Z,73.71
2022-10-15T18:49:01.663Z,73.71
2022-10-15T18:51:28.784Z,73.66
2022-10-15T18:53:55.554Z,73.50
2022-10-15T18:56:22.528Z,73.80
2022-10-15T18:58:49.939Z,73.77
2022-10-15T19:01:31.453Z,73.80
2022-10-15T19:04:00.632Z,73.76
2022-10-15T19:06:30.448Z,73.82
2022-10-15T19:08:58.514Z,73.52
2022-10-15T19:11:25.954Z,73.58
2022-10-15T19:13:52.709Z,73.62
2022-10-15T19:16:19.429Z,73.54
2022-10-15T19:18:46.126Z,73.58
2022-10-15T19:21:12.913Z,73.55
2022-10-15T19:23:39.642Z,73.46
2022-10-15T19:26:10.106Z,73.48
2022-10-15T19:28:37.351Z,73.76
2022-10-15T19:31:05.806Z,73.67
2022-10-15T19:33:33.892Z,73.72
2022-10-15T19:36:01.022Z,73.72
2022-10-15T19:38:28.290Z,73.81
2022-10-15T19:40:55.754Z,73.84
2022-10-15T19:43:23.658Z,73.87
2022-10-15T19:45:50.631Z,73.68
2022-10-15T19:48:19.026Z,73.86
2022-10-15T19:50:46.867Z,73.81
2022-10-15T19:53:16.197Z,73.72
2022-10-15T19:55:44.252Z,73.85
2022-10-15T19:58:11.217Z,73.54
2022-10-15T20:00:37.993Z,73.62
2022-10-15T20:03:04.800Z,73.83
2022-10-15T20:05:31.592Z,73.75
2022-10-15T20:07:58.337Z,73.84
2022-10-15T20:10:26.182Z,74.30
2022-10-15T20:12:53.661Z,74.10
2022-10-15T20:15:20.593Z,73.83
2022-10-15T20:17:47.919Z,73.85
2022-10-15T20:20:15.057Z,73.86
2022-10-15T20:22:41.883Z,73.85
2022-10-15T20:25:08.849Z,73.91
2022-10-15T20:27:35.561Z,73.80
2022-10-15T20:30:02.339Z,73.77
2022-10-15T20:32:36.308Z,73.65
2022-10-15T20:35:04.157Z,73.81
2022-10-15T20:37:31.003Z,73.69
2022-10-15T20:42:29.510Z,73.54
2022-10-15T20:44:56.311Z,73.71
2022-10-15T20:47:24.064Z,73.21
2022-10-15T20:49:52.416Z,73.61
2022-10-15T20:52:19.342Z,73.42
2022-10-15T20:54:46.046Z,73.28
2022-10-15T20:57:12.836Z,73.62
2022-10-15T20:59:39.668Z,73.57
2022-10-15T21:02:06.732Z,73.75
2022-10-15T21:04:33.412Z,73.69
2022-10-15T21:07:00.109Z,73.81
2022-10-15T21:09:26.804Z,73.78
2022-10-15T21:11:53.520Z,73.73
2022-10-15T21:14:20.202Z,73.95
2022-10-15T21:16:46.942Z,73.72
2022-10-15T21:19:13.964Z,73.49
2022-10-15T21:21:40.688Z,73.53
2022-10-15T21:24:07.394Z,73.50
2022-10-15T21:26:34.105Z,73.62
2022-10-15T21:29:00.840Z,73.55
2022-10-15T21:31:27.597Z,73.38
2022-10-15T21:33:55.174Z,73.23
2022-10-15T21:36:26.543Z,73.30
2022-10-15T21:39:05.176Z,73.00
2022-10-15T21:41:33.449Z,73.24
2022-10-15T21:44:01.234Z,73.27
2022-10-15T21:46:28.273Z,73.16
2022-10-15T21:48:54.962Z,73.11
2022-10-15T21:51:24.510Z,72.95
2022-10-15T21:53:51.441Z,72.91
2022-10-15T21:56:18.472Z,72.61
2022-10-15T21:58:45.247Z,73.01
2022-10-15T22:01:19.456Z,72.70
2022-10-15T22:03:47.728Z,73.06
2022-10-15T22:06:15.389Z,72.74
2022-10-15T22:08:42.431Z,72.67
2022-10-15T22:14:00.732Z,72.79
2022-10-15T22:16:28.473Z,72.50
2022-10-15T22:18:55.972Z,72.71
2022-10-15T22:21:25.281Z,72.34
2022-10-15T22:23:57.058Z,72.49
2022-10-15T22:26:26.514Z,72.43
2022-10-15T22:28:54.472Z,72.37
2022-10-15T22:31:21.940Z,72.17
2022-10-15T22:33:49.165Z,72.29
2022-10-15T22:36:18.004Z,72.20
2022-10-15T22:38:46.066Z,72.28
2022-10-15T22:41:13.686Z,72.25
2022-10-15T22:43:40.474Z,72.11
2022-10-15T22:46:07.409Z,72.01
2022-10-15T22:48:35.267Z,71.77
2022-10-15T22:51:02.925Z,71.70
2022-10-15T22:53:30.002Z,71.69
2022-10-15T22:56:00.557Z,71.73
2022-10-15T22:58:27.678Z,71.49
2022-10-15T23:00:54.535Z,71.54
2022-10-15T23:03:21.544Z,71.49
2022-10-15T23:05:52.854Z,71.54
2022-10-15T23:08:19.876Z,71.39
2022-10-15T23:10:46.606Z,71.34
2022-10-15T23:13:13.696Z,71.15
2022-10-15T23:15:40.580Z,70.99
2022-10-15T23:18:07.310Z,71.08
2022-10-15T23:20:38.010Z,71.05
2022-10-15T23:23:05.852Z,70.96
2022-10-15T23:25:39.273Z,71.01
2022-10-15T23:28:05.995Z,71.03
2022-10-15T23:30:32.721Z,70.94
2022-10-15T23:33:01.808Z,70.90
2022-10-15T23:35:28.692Z,70.77
2022-10-15T23:37:55.456Z,70.62
2022-10-15T23:40:22.184Z,70.66
2022-10-15T23:42:48.875Z,70.61
2022-10-15T23:45:15.683Z,70.63
2022-10-15T23:47:42.393Z,70.78
2022-10-15T23:50:09.334Z,70.82
2022-10-15T23:52:36.063Z,70.61
2022-10-15T23:55:03.546Z,70.59
2022-10-15T23:57:30.259Z,70.28
2022-10-15T23:59:56.983Z,70.65
